RYR82B EGNT-EBCI
Flight info
| Callsign | RYR82B |
|---|---|
| Flight time | N/A |
| Altitude | 25000 |
| Route | GIRLI P18 LEHOC/N0420F230 P18 STAFA L8 HON/N0461F350 L15 BIG Q70 VABIK/N0421F230 Q70 KOK |
| Aircraft | B738/M-SDE2E3FGHIRWXY/LB1 |
Departure
| Time | 2026-04-29 08:45 |
|---|---|
| Airport | Newcastle International Airport (EGNT) |
Arrival
| Time | N/A |
|---|---|
| Airport | Brussels South Charleroi Airport (EBCI) |
| Time | Latitude | Longitude | Altitude | Speed | Heading |
|---|---|---|---|---|---|
| 2026-04-29 08:26 | 55.03656 | -1.70712 | 266 ft | 0 kts | 4° |
| 2026-04-29 08:31 | 55.03639 | -1.70714 | 266 ft | 4 kts | 4° |
| 2026-04-29 08:31 | 55.03618 | -1.70717 | 266 ft | 4 kts | 11° |
| 2026-04-29 08:31 | 55.03598 | -1.70732 | 266 ft | 4 kts | 70° |
| 2026-04-29 08:31 | 55.03597 | -1.70773 | 266 ft | 4 kts | 94° |
| 2026-04-29 08:32 | 55.03597 | -1.70787 | 266 ft | 2 kts | 94° |
| 2026-04-29 08:39 | 55.03597 | -1.70772 | 266 ft | 4 kts | 94° |
| 2026-04-29 08:39 | 55.03593 | -1.70704 | 266 ft | 7 kts | 102° |
| 2026-04-29 08:40 | 55.03548 | -1.70645 | 266 ft | 10 kts | 173° |
| 2026-04-29 08:40 | 55.03479 | -1.70646 | 266 ft | 10 kts | 182° |
| 2026-04-29 08:40 | 55.03411 | -1.70646 | 267 ft | 10 kts | 171° |
| 2026-04-29 08:40 | 55.03377 | -1.70560 | 266 ft | 9 kts | 84° |
| 2026-04-29 08:41 | 55.03388 | -1.70505 | 266 ft | 0 kts | 66° |
| 2026-04-29 08:41 | 55.03388 | -1.70503 | 266 ft | 0 kts | 66° |
| 2026-04-29 08:42 | 55.03389 | -1.70500 | 266 ft | 0 kts | 66° |
| 2026-04-29 08:42 | 55.03390 | -1.70496 | 266 ft | 0 kts | 66° |
| 2026-04-29 08:42 | 55.03391 | -1.70494 | 266 ft | 0 kts | 66° |
| 2026-04-29 08:44 | 55.03391 | -1.70492 | 266 ft | 1 kts | 66° |
| 2026-04-29 08:44 | 55.03453 | -1.70256 | 264 ft | 61 kts | 65° |
| 2026-04-29 08:44 | 55.03753 | -1.69124 | 253 ft | 141 kts | 65° |
| 2026-04-29 08:44 | 55.04217 | -1.67343 | 776 ft | 166 kts | 64° |
| 2026-04-29 08:45 | 55.04795 | -1.65622 | 1830 ft | 162 kts | 64° |
| 2026-04-29 08:45 | 55.05306 | -1.63735 | 2459 ft | 185 kts | 68° |
| 2026-04-29 08:45 | 55.05884 | -1.61540 | 2864 ft | 207 kts | 67° |
| 2026-04-29 08:45 | 55.06479 | -1.59219 | 3503 ft | 210 kts | 75° |
| 2026-04-29 08:46 | 55.06496 | -1.56730 | 4248 ft | 207 kts | 108° |
| 2026-04-29 08:46 | 55.05750 | -1.54588 | 4896 ft | 216 kts | 135° |
| 2026-04-29 08:46 | 55.04331 | -1.53281 | 5144 ft | 251 kts | 167° |
| 2026-04-29 08:46 | 55.02531 | -1.53140 | 5801 ft | 264 kts | 177° |
| 2026-04-29 08:47 | 55.00668 | -1.53169 | 6626 ft | 270 kts | 177° |
| 2026-04-29 08:47 | 54.98779 | -1.53199 | 7493 ft | 273 kts | 178° |
| 2026-04-29 08:47 | 54.96890 | -1.53792 | 8109 ft | 282 kts | 202° |
| 2026-04-29 08:47 | 54.95161 | -1.55502 | 8502 ft | 289 kts | 207° |
| 2026-04-29 08:48 | 54.93444 | -1.57308 | 8497 ft | 293 kts | 207° |
| 2026-04-29 08:48 | 54.91709 | -1.59137 | 8496 ft | 290 kts | 207° |
| 2026-04-29 08:48 | 54.89985 | -1.60942 | 8541 ft | 288 kts | 207° |
| 2026-04-29 08:48 | 54.88246 | -1.62749 | 8945 ft | 294 kts | 207° |
| 2026-04-29 08:49 | 54.86474 | -1.64578 | 9793 ft | 297 kts | 206° |
| 2026-04-29 08:49 | 54.84691 | -1.66414 | 10663 ft | 299 kts | 206° |
| 2026-04-29 08:49 | 54.82852 | -1.68296 | 11100 ft | 318 kts | 206° |
| 2026-04-29 08:49 | 54.80867 | -1.70319 | 11272 ft | 343 kts | 206° |
| 2026-04-29 08:50 | 54.78763 | -1.72467 | 11453 ft | 366 kts | 206° |
| 2026-04-29 08:50 | 54.76503 | -1.74777 | 11651 ft | 386 kts | 207° |
| 2026-04-29 08:50 | 54.74148 | -1.77183 | 12131 ft | 396 kts | 207° |
| 2026-04-29 08:50 | 54.71758 | -1.79595 | 12810 ft | 399 kts | 204° |
| 2026-04-29 08:51 | 54.69167 | -1.81186 | 13456 ft | 394 kts | 185° |
| 2026-04-29 08:51 | 54.66458 | -1.81931 | 14170 ft | 396 kts | 184° |
| 2026-04-29 08:51 | 54.63723 | -1.82701 | 14752 ft | 401 kts | 185° |
| 2026-04-29 08:51 | 54.60953 | -1.83536 | 15346 ft | 405 kts | 185° |
| 2026-04-29 08:52 | 54.58162 | -1.84416 | 15959 ft | 408 kts | 185° |